Time;durP1;ratioP1;P1;durP2;ratioP2;P2;SDS_P1;SDS_P2;PMS_P1;PMS_P2;Temp;Humidity;BMP_temperature;BMP_pressure;BME280_temperature;BME280_humidity;BME280_pressure;Samples;Min_cycle;Max_cycle;Signal;HPM_P1;HPM_P2
2021/12/28 00:01:21;;;;;;;77.47;26.88;;;9.90;99.90;;;;;;5072608;28;20540;-71
2021/12/28 00:03:47;;;;;;;67.68;25.30;;;10.00;99.90;;;;;;5072639;28;20040;-70
2021/12/28 00:06:14;;;;;;;76.07;24.73;;;9.90;99.90;;;;;;5072435;28;20040;-70
2021/12/28 00:08:40;;;;;;;73.25;24.27;;;10.00;99.90;;;;;;5072570;28;20020;-70
2021/12/28 00:11:06;;;;;;;71.25;26.98;;;10.00;99.90;;;;;;5072393;28;20090;-71
2021/12/28 00:13:33;;;;;;;61.65;22.52;;;9.90;99.90;;;;;;5072574;28;20043;-71
2021/12/28 00:18:32;;;;;;;57.40;22.13;;;9.90;99.90;;;;;;5072450;28;20113;-69
2021/12/28 00:21:00;;;;;;;70.38;25.50;;;9.90;99.90;;;;;;5072298;28;20035;-71
2021/12/28 00:23:36;;;;;;;50.70;20.75;;;10.00;99.90;;;;;;5072336;28;20029;-70
2021/12/28 00:26:03;;;;;;;59.17;23.15;;;10.00;99.90;;;;;;5072502;28;20029;-71
2021/12/28 00:28:28;;;;;;;42.75;17.42;;;10.00;99.90;;;;;;5072159;28;20029;-71
2021/12/28 00:30:54;;;;;;;45.25;18.10;;;10.00;99.90;;;;;;5072058;28;20124;-70
2021/12/28 00:33:22;;;;;;;63.92;22.70;;;9.90;99.90;;;;;;5072316;28;20029;-71
2021/12/28 00:35:47;;;;;;;50.55;19.25;;;9.90;99.90;;;;;;5072012;28;20103;-70
2021/12/28 00:38:18;;;;;;;56.83;21.90;;;9.90;99.90;;;;;;5072355;28;20119;-71
2021/12/28 00:40:49;;;;;;;49.50;19.50;;;9.90;99.90;;;;;;5075859;28;20024;-70
2021/12/28 00:43:15;;;;;;;52.13;18.73;;;9.90;99.90;;;;;;5076078;28;20044;-71
2021/12/28 00:45:41;;;;;;;49.30;17.77;;;9.90;99.90;;;;;;5076301;28;20032;-71
2021/12/28 00:48:07;;;;;;;47.35;18.58;;;9.80;99.90;;;;;;5075879;28;20452;-71
2021/12/28 00:50:33;;;;;;;59.33;19.48;;;9.80;99.90;;;;;;5076276;28;20048;-71
2021/12/28 00:52:59;;;;;;;47.10;17.60;;;9.80;99.90;;;;;;5076171;28;20499;-70
2021/12/28 00:55:25;;;;;;;52.42;19.13;;;9.80;99.90;;;;;;5075916;28;20025;-69
2021/12/28 00:57:51;;;;;;;45.72;18.85;;;9.80;99.90;;;;;;5075779;28;20111;-71
2021/12/28 01:00:29;;;;;;;55.13;19.13;;;9.80;99.90;;;;;;5075842;28;20025;-70
2021/12/28 01:02:56;;;;;;;42.92;16.83;;;9.80;99.90;;;;;;5075337;28;20139;-69
2021/12/28 01:05:22;;;;;;;43.15;16.40;;;9.80;99.90;;;;;;5075277;28;20025;-70
2021/12/28 01:07:48;;;;;;;40.22;15.27;;;9.80;99.90;;;;;;5075765;28;20029;-70
2021/12/28 01:10:18;;;;;;;40.22;16.33;;;9.80;99.90;;;;;;5075629;28;20028;-71
2021/12/28 01:12:44;;;;;;;36.70;13.50;;;9.90;99.90;;;;;;5075363;28;20031;-71
2021/12/28 01:15:12;;;;;;;42.17;15.57;;;9.80;99.90;;;;;;5075446;28;20025;-71
2021/12/28 01:17:38;;;;;;;31.58;13.50;;;9.80;99.90;;;;;;5075538;28;20039;-70
2021/12/28 01:20:07;;;;;;;37.38;13.68;;;9.80;99.90;;;;;;5075162;28;20024;-69
2021/12/28 01:22:33;;;;;;;35.03;11.50;;;9.80;99.90;;;;;;5075252;28;20049;-71
2021/12/28 01:24:59;;;;;;;41.47;15.10;;;9.70;99.90;;;;;;5075662;28;20043;-71
2021/12/28 01:27:25;;;;;;;33.00;13.30;;;9.70;99.90;;;;;;5075225;28;20024;-71
2021/12/28 01:29:51;;;;;;;35.15;13.43;;;9.70;99.90;;;;;;5075282;28;20033;-69
2021/12/28 01:32:16;;;;;;;33.17;14.02;;;9.70;99.90;;;;;;5074921;28;20044;-71
2021/12/28 01:34:43;;;;;;;29.88;11.43;;;9.70;99.90;;;;;;5075207;28;20086;-71
2021/12/28 01:37:10;;;;;;;36.58;13.30;;;9.70;99.90;;;;;;5075154;28;20035;-70
2021/12/28 01:39:35;;;;;;;34.67;13.55;;;9.70;99.90;;;;;;5075227;28;20028;-69
2021/12/28 01:42:05;;;;;;;32.92;12.30;;;9.70;99.90;;;;;;5074735;28;20051;-70
2021/12/28 01:44:31;;;;;;;31.60;12.50;;;9.70;99.90;;;;;;5075094;28;20035;-71
2021/12/28 01:46:57;;;;;;;30.55;11.52;;;9.70;99.90;;;;;;5074743;28;20483;-69
2021/12/28 01:49:23;;;;;;;39.88;12.25;;;9.70;99.90;;;;;;5074687;28;20024;-71
2021/12/28 01:51:49;;;;;;;41.55;14.32;;;9.70;99.90;;;;;;5072972;28;20028;-71
2021/12/28 01:54:14;;;;;;;33.00;11.63;;;9.70;99.90;;;;;;5075087;28;20036;-70
2021/12/28 01:56:44;;;;;;;39.67;12.88;;;9.60;99.90;;;;;;5074824;28;20081;-71
2021/12/28 01:59:15;;;;;;;37.45;11.77;;;9.60;99.90;;;;;;5074925;28;20090;-69
2021/12/28 02:01:41;;;;;;;38.97;11.60;;;9.60;99.90;;;;;;5074525;28;20040;-69
2021/12/28 02:04:21;;;;;;;34.63;10.70;;;9.60;99.90;;;;;;5074618;28;20051;-70
2021/12/28 02:06:48;;;;;;;32.00;10.43;;;9.60;99.90;;;;;;5074349;28;20388;-70
2021/12/28 02:09:14;;;;;;;31.50;10.88;;;9.60;99.90;;;;;;5074393;28;20113;-70
2021/12/28 02:11:40;;;;;;;38.72;11.07;;;9.60;99.90;;;;;;5074379;28;20075;-71
2021/12/28 02:14:08;;;;;;;34.33;10.73;;;9.60;99.90;;;;;;5074086;28;20024;-70
2021/12/28 02:16:35;;;;;;;28.15;8.70;;;9.60;99.90;;;;;;5074493;28;20464;-69
2021/12/28 02:19:03;;;;;;;28.38;9.50;;;9.60;99.90;;;;;;5074407;28;20092;-71
2021/12/28 02:21:31;;;;;;;33.05;11.73;;;9.60;99.90;;;;;;5074319;28;20021;-70
2021/12/28 02:23:57;;;;;;;27.63;10.18;;;9.60;99.90;;;;;;5074107;28;20076;-69
2021/12/28 02:26:23;;;;;;;30.90;8.93;;;9.60;99.90;;;;;;5074014;28;20029;-69
2021/12/28 02:28:49;;;;;;;37.10;10.38;;;9.60;99.90;;;;;;5074070;28;20085;-70
2021/12/28 02:31:15;;;;;;;30.50;8.85;;;9.60;99.90;;;;;;5074268;28;20025;-71
2021/12/28 02:33:41;;;;;;;29.63;7.97;;;9.60;99.90;;;;;;5074232;28;20066;-70
2021/12/28 02:36:07;;;;;;;27.25;8.75;;;9.60;99.90;;;;;;5073979;28;20021;-71
2021/12/28 02:38:34;;;;;;;33.70;8.88;;;9.60;99.90;;;;;;5073853;28;20025;-70
2021/12/28 02:41:00;;;;;;;28.75;8.98;;;9.60;99.90;;;;;;5073667;28;20029;-70
2021/12/28 02:43:26;;;;;;;29.67;9.50;;;9.50;99.90;;;;;;5073926;28;20044;-71
2021/12/28 02:46:02;;;;;;;23.92;8.55;;;9.50;99.90;;;;;;5073886;28;20029;-70
2021/12/28 02:48:28;;;;;;;30.83;8.23;;;9.40;99.90;;;;;;5073864;28;20028;-70
2021/12/28 02:50:58;;;;;;;37.13;9.77;;;9.50;99.90;;;;;;5073550;28;20025;-70
2021/12/28 02:53:25;;;;;;;32.10;8.73;;;9.40;99.90;;;;;;5072160;28;20521;-71
2021/12/28 02:55:52;;;;;;;31.67;8.65;;;9.40;99.90;;;;;;5073498;28;20112;-70
2021/12/28 02:58:29;;;;;;;36.10;8.55;;;9.40;99.90;;;;;;5073608;28;20027;-70
2021/12/28 03:01:07;;;;;;;27.58;7.38;;;9.40;99.90;;;;;;5073235;28;20033;-70
2021/12/28 03:03:33;;;;;;;31.88;7.97;;;9.40;99.90;;;;;;5072594;28;20036;-71
2021/12/28 03:06:01;;;;;;;31.73;8.32;;;9.40;99.90;;;;;;5073207;28;20125;-70
2021/12/28 03:08:29;;;;;;;32.88;9.68;;;9.40;99.90;;;;;;5073362;28;20017;-69
2021/12/28 03:10:57;;;;;;;35.67;8.63;;;9.40;99.90;;;;;;5073039;28;20036;-70
2021/12/28 03:13:34;;;;;;;31.38;8.10;;;9.50;99.90;;;;;;5073324;28;20029;-70
2021/12/28 03:16:00;;;;;;;28.67;7.82;;;9.50;99.90;;;;;;5073066;28;20380;-69
2021/12/28 03:18:25;;;;;;;31.13;7.80;;;9.60;99.90;;;;;;5072989;28;20036;-70
2021/12/28 03:20:51;;;;;;;29.05;7.95;;;9.60;99.90;;;;;;5072827;28;20032;-70
2021/12/28 03:23:20;;;;;;;29.13;8.20;;;9.60;99.90;;;;;;5073099;28;20035;-70
2021/12/28 03:25:47;;;;;;;36.60;8.80;;;9.60;99.90;;;;;;5071822;28;20028;-70
2021/12/28 03:28:18;;;;;;;28.95;7.18;;;9.60;99.90;;;;;;5073132;28;20520;-70
2021/12/28 03:30:45;;;;;;;35.55;8.55;;;9.60;99.90;;;;;;5073097;28;20449;-70
2021/12/28 03:33:11;;;;;;;33.17;8.02;;;9.60;99.90;;;;;;5072899;28;20038;-71
2021/12/28 03:35:36;;;;;;;38.70;8.88;;;9.60;99.90;;;;;;5072669;28;20111;-71
2021/12/28 03:38:02;;;;;;;30.30;8.25;;;9.60;99.90;;;;;;5072745;28;20028;-70
2021/12/28 03:40:28;;;;;;;43.22;8.48;;;9.60;99.90;;;;;;5072967;28;20059;-70
2021/12/28 03:42:53;;;;;;;25.98;7.85;;;9.60;99.90;;;;;;5072650;28;20043;-71
2021/12/28 03:45:19;;;;;;;25.52;7.78;;;9.50;99.90;;;;;;5072696;28;20025;-70
2021/12/28 03:47:45;;;;;;;30.23;7.65;;;9.60;99.90;;;;;;5072710;28;20064;-70
2021/12/28 03:50:11;;;;;;;28.25;6.80;;;9.60;99.90;;;;;;5072797;28;20055;-69
2021/12/28 03:52:38;;;;;;;36.30;7.70;;;9.60;99.90;;;;;;5072741;28;20025;-71
2021/12/28 03:55:05;;;;;;;30.23;7.30;;;9.60;99.90;;;;;;5072831;28;20063;-69
2021/12/28 03:57:31;;;;;;;29.88;7.13;;;9.70;99.90;;;;;;5071320;28;20468;-68
2021/12/28 03:59:57;;;;;;;30.92;6.57;;;9.70;99.90;;;;;;5072441;28;20032;-69
2021/12/28 04:02:22;;;;;;;30.08;6.95;;;9.80;99.90;;;;;;5072203;28;20059;-70
2021/12/28 04:04:48;;;;;;;30.80;6.72;;;9.70;99.90;;;;;;5072421;28;20358;-70
2021/12/28 04:07:19;;;;;;;22.83;5.90;;;9.70;99.90;;;;;;5072396;28;20020;-69
2021/12/28 04:12:21;;;;;;;27.15;6.53;;;9.70;99.90;;;;;;5072418;28;20048;-70
2021/12/28 04:14:47;;;;;;;30.60;6.65;;;9.70;99.90;;;;;;5071883;28;20107;-68
2021/12/28 04:17:13;;;;;;;24.15;6.03;;;9.70;99.90;;;;;;5072442;28;20104;-70
2021/12/28 04:19:39;;;;;;;39.00;7.03;;;9.80;99.90;;;;;;5072318;28;20016;-70
2021/12/28 04:22:05;;;;;;;30.90;5.85;;;9.80;99.90;;;;;;5072149;28;20161;-70
2021/12/28 04:24:31;;;;;;;32.30;6.55;;;9.80;99.90;;;;;;5072326;28;20035;-71
2021/12/28 04:26:57;;;;;;;25.27;6.68;;;9.80;99.90;;;;;;5072070;28;20376;-69
2021/12/28 04:29:23;;;;;;;27.67;6.10;;;9.80;99.90;;;;;;5071996;28;20025;-71
2021/12/28 04:31:48;;;;;;;24.98;7.25;;;9.70;99.90;;;;;;5072382;28;20028;-70
2021/12/28 04:34:14;;;;;;;33.72;6.78;;;9.70;99.90;;;;;;5072319;28;20032;-71
2021/12/28 04:36:39;;;;;;;21.50;6.10;;;9.70;99.90;;;;;;5072204;28;20105;-70
2021/12/28 04:39:06;;;;;;;36.90;7.20;;;9.60;99.90;;;;;;5072017;28;20025;-71
2021/12/28 04:41:34;;;;;;;34.85;8.52;;;9.60;99.90;;;;;;5072169;28;20032;-69
2021/12/28 04:44:01;;;;;;;45.85;8.35;;;9.60;99.90;;;;;;5071845;28;20037;-69
2021/12/28 04:46:28;;;;;;;29.08;7.45;;;9.60;99.90;;;;;;5072300;28;20020;-70
2021/12/28 04:48:53;;;;;;;34.63;7.97;;;9.60;99.90;;;;;;5071968;28;20017;-70
2021/12/28 04:51:19;;;;;;;47.15;9.77;;;9.60;99.90;;;;;;5072265;28;20357;-70
2021/12/28 04:53:45;;;;;;;25.45;7.03;;;9.60;99.90;;;;;;5072026;28;20036;-69
2021/12/28 04:56:10;;;;;;;30.70;8.52;;;9.50;99.90;;;;;;5071980;28;20028;-69
2021/12/28 04:58:36;;;;;;;33.05;7.75;;;9.50;99.90;;;;;;5070361;28;20030;-71
2021/12/28 05:01:02;;;;;;;34.30;8.90;;;9.50;99.90;;;;;;5072198;28;20028;-70
2021/12/28 05:03:28;;;;;;;30.00;7.05;;;9.60;99.90;;;;;;5071976;28;20499;-70
2021/12/28 05:05:54;;;;;;;30.52;9.50;;;9.50;99.90;;;;;;5072302;28;20040;-69
2021/12/28 05:08:21;;;;;;;27.38;6.63;;;9.50;99.90;;;;;;5072192;28;20024;-70
2021/12/28 05:10:48;;;;;;;28.60;6.43;;;9.50;99.90;;;;;;5070741;28;20095;-70
2021/12/28 05:13:14;;;;;;;21.23;5.45;;;9.50;99.90;;;;;;5071355;28;20407;-70
2021/12/28 05:15:43;;;;;;;37.13;8.50;;;9.50;99.90;;;;;;5071734;28;20479;-70
2021/12/28 05:18:09;;;;;;;25.60;7.43;;;9.50;99.90;;;;;;5072251;28;20448;-70
2021/12/28 05:20:35;;;;;;;30.10;7.05;;;9.50;99.90;;;;;;5071997;28;20024;-71
2021/12/28 05:23:01;;;;;;;31.13;6.45;;;9.50;99.90;;;;;;5071906;28;20048;-69
2021/12/28 05:25:27;;;;;;;30.67;6.47;;;9.50;99.90;;;;;;5071841;28;20047;-69
2021/12/28 05:27:52;;;;;;;24.92;5.97;;;9.50;99.90;;;;;;5074882;28;20028;-70
2021/12/28 05:30:18;;;;;;;23.10;6.00;;;9.40;99.90;;;;;;5090802;28;20451;-70
2021/12/28 05:32:44;;;;;;;37.35;6.97;;;9.50;99.90;;;;;;5075215;28;20112;-69
2021/12/28 05:35:10;;;;;;;24.45;5.70;;;9.50;99.90;;;;;;5075236;28;20103;-69
2021/12/28 05:37:36;;;;;;;26.38;6.00;;;9.50;99.90;;;;;;5074978;28;20388;-70
2021/12/28 05:40:04;;;;;;;25.83;5.47;;;9.50;99.90;;;;;;5075061;28;20023;-70
2021/12/28 05:42:30;;;;;;;23.67;5.95;;;9.50;99.90;;;;;;5074707;28;20380;-70
2021/12/28 05:44:55;;;;;;;23.55;5.82;;;9.50;99.90;;;;;;5074953;28;20028;-69
2021/12/28 05:47:21;;;;;;;20.30;5.28;;;9.50;99.90;;;;;;5075115;28;20032;-71
2021/12/28 05:49:47;;;;;;;67.03;8.38;;;9.50;99.90;;;;;;5073594;28;20036;-70
2021/12/28 05:52:13;;;;;;;25.95;6.80;;;9.60;99.90;;;;;;5074765;28;20444;-70
2021/12/28 05:54:38;;;;;;;24.70;5.97;;;9.60;99.90;;;;;;5075129;28;20048;-70
2021/12/28 05:57:04;;;;;;;22.95;6.45;;;9.60;99.90;;;;;;5074562;28;20060;-70
2021/12/28 05:59:30;;;;;;;30.80;6.85;;;9.60;99.90;;;;;;5074927;28;20479;-70
2021/12/28 06:01:56;;;;;;;20.98;6.80;;;9.60;99.90;;;;;;5074797;28;20049;-69
2021/12/28 06:04:21;;;;;;;32.67;8.35;;;9.60;99.90;;;;;;5074781;28;20036;-71
2021/12/28 06:06:47;;;;;;;29.63;6.90;;;9.60;99.90;;;;;;5074603;28;20487;-69
2021/12/28 06:09:13;;;;;;;26.50;7.72;;;9.60;99.90;;;;;;5074654;28;20036;-69
2021/12/28 06:11:39;;;;;;;29.90;8.98;;;9.60;99.90;;;;;;5074565;28;20042;-70
2021/12/28 06:14:05;;;;;;;29.13;7.07;;;9.70;99.90;;;;;;5074727;28;20032;-70
2021/12/28 06:16:31;;;;;;;28.30;6.88;;;9.70;99.90;;;;;;5074417;28;20450;-70
2021/12/28 06:18:56;;;;;;;21.85;6.03;;;9.70;99.90;;;;;;5074564;28;20100;-70
2021/12/28 06:21:22;;;;;;;26.58;8.95;;;9.70;99.90;;;;;;5074489;28;20028;-69
2021/12/28 06:23:48;;;;;;;25.02;7.53;;;9.70;99.90;;;;;;5074521;28;20036;-71
2021/12/28 06:26:14;;;;;;;31.92;8.00;;;9.70;99.90;;;;;;5074026;28;20039;-70
2021/12/28 06:28:39;;;;;;;26.27;8.45;;;9.70;99.90;;;;;;5074584;28;20512;-69
2021/12/28 06:31:05;;;;;;;19.35;6.22;;;9.70;99.90;;;;;;5073453;28;20021;-70
2021/12/28 06:33:31;;;;;;;24.42;7.22;;;9.70;99.90;;;;;;5074070;28;20028;-70
2021/12/28 06:35:56;;;;;;;25.10;7.95;;;9.80;99.90;;;;;;5074149;28;20476;-69
2021/12/28 06:38:22;;;;;;;24.90;8.18;;;9.80;99.90;;;;;;5073870;28;20052;-71
2021/12/28 06:40:48;;;;;;;26.48;7.53;;;9.80;99.90;;;;;;5072438;28;20029;-70
2021/12/28 06:43:14;;;;;;;29.80;7.18;;;9.80;99.90;;;;;;5074059;28;20125;-70
2021/12/28 06:45:41;;;;;;;27.05;7.95;;;9.80;99.90;;;;;;5074058;28;20455;-72
2021/12/28 06:48:07;;;;;;;23.33;7.03;;;9.80;99.90;;;;;;5074023;28;20094;-70
2021/12/28 06:50:33;;;;;;;21.77;7.25;;;9.90;99.90;;;;;;5073894;28;20025;-71
2021/12/28 06:52:59;;;;;;;27.77;7.88;;;9.80;99.90;;;;;;5073683;28;20514;-72
2021/12/28 06:55:24;;;;;;;26.50;8.65;;;9.80;99.90;;;;;;5073606;28;20017;-70
2021/12/28 06:57:50;;;;;;;22.50;6.20;;;9.80;99.90;;;;;;5073682;28;20048;-70
2021/12/28 07:00:18;;;;;;;25.88;7.15;;;9.80;99.90;;;;;;5073650;28;20028;-71
2021/12/28 07:02:44;;;;;;;21.02;6.68;;;9.80;99.90;;;;;;5073152;28;20487;-69
2021/12/28 07:05:11;;;;;;;20.48;5.05;;;9.80;99.90;;;;;;5073509;28;20040;-72
2021/12/28 07:07:38;;;;;;;25.88;7.30;;;9.80;99.90;;;;;;5073412;28;20029;-71
2021/12/28 07:10:06;;;;;;;33.38;10.13;;;9.80;99.90;;;;;;5073493;28;20094;-69
2021/12/28 07:12:33;;;;;;;26.35;8.18;;;9.80;99.90;;;;;;5073156;28;20028;-71
2021/12/28 07:14:58;;;;;;;30.67;8.95;;;9.80;99.90;;;;;;5073135;28;20782;-71
2021/12/28 07:17:26;;;;;;;25.25;8.45;;;9.80;99.90;;;;;;5073083;28;20060;-71
2021/12/28 07:19:53;;;;;;;22.75;8.25;;;9.80;99.90;;;;;;5073577;28;20074;-70
2021/12/28 07:22:19;;;;;;;25.65;8.65;;;9.80;99.90;;;;;;5073173;28;20116;-70
2021/12/28 07:24:44;;;;;;;147.15;23.75;;;9.80;99.90;;;;;;5072932;28;20099;-70
2021/12/28 07:27:10;;;;;;;16.95;6.38;;;9.80;99.90;;;;;;5073041;28;20024;-70
2021/12/28 07:29:36;;;;;;;15.95;6.07;;;9.80;99.90;;;;;;5071906;28;20391;-70
2021/12/28 07:32:03;;;;;;;26.55;8.43;;;9.90;99.90;;;;;;5072513;28;20050;-71
2021/12/28 07:34:31;;;;;;;23.80;8.02;;;9.80;99.90;;;;;;5071412;28;20021;-70
2021/12/28 07:36:57;;;;;;;22.90;7.90;;;9.80;99.90;;;;;;5072326;28;20021;-71
2021/12/28 07:39:22;;;;;;;27.77;9.77;;;9.80;99.90;;;;;;5071549;28;20039;-72
2021/12/28 07:41:48;;;;;;;26.75;10.65;;;9.80;99.90;;;;;;5072470;28;20085;-72
2021/12/28 07:44:14;;;;;;;33.00;13.00;;;9.90;99.90;;;;;;5052769;28;20041;-71
2021/12/28 07:46:40;;;;;;;23.88;8.77;;;9.90;99.90;;;;;;5065431;28;20040;-71
2021/12/28 07:49:06;;;;;;;32.15;11.68;;;9.90;99.90;;;;;;5072034;28;20032;-71
2021/12/28 07:51:32;;;;;;;35.47;13.18;;;9.90;99.90;;;;;;5072209;28;20052;-71
2021/12/28 07:53:57;;;;;;;29.52;10.95;;;9.90;99.90;;;;;;5072086;28;20028;-71
2021/12/28 07:56:23;;;;;;;33.20;12.25;;;9.90;99.90;;;;;;5072927;28;20036;-70
2021/12/28 07:58:48;;;;;;;28.35;11.30;;;9.90;99.90;;;;;;5072536;28;20039;-71
2021/12/28 08:01:14;;;;;;;29.52;11.00;;;9.90;99.90;;;;;;5072342;28;20102;-73
2021/12/28 08:03:40;;;;;;;33.28;12.43;;;9.90;99.90;;;;;;5071135;28;20040;-70
2021/12/28 08:06:05;;;;;;;31.20;13.05;;;9.90;99.90;;;;;;5071042;28;20434;-70
2021/12/28 08:08:31;;;;;;;31.05;11.90;;;9.90;99.90;;;;;;5072453;28;20025;-71
2021/12/28 08:10:57;;;;;;;33.85;13.20;;;9.90;99.90;;;;;;5072703;28;20048;-70
2021/12/28 08:13:23;;;;;;;42.50;14.20;;;10.00;99.90;;;;;;5072766;28;20032;-70
2021/12/28 08:15:48;;;;;;;29.20;11.18;;;10.00;99.90;;;;;;5070591;28;20067;-69
2021/12/28 08:18:14;;;;;;;87.05;17.58;;;10.00;99.90;;;;;;5070509;28;20111;-69
2021/12/28 12:14:52;;;;;;;20.92;2.90;;;9.80;99.90;;;;;;5049185;28;20365;-71
2021/12/28 12:17:53;;;;;;;26.15;3.88;;;10.30;99.90;;;;;;5049875;28;20043;-72
2021/12/28 12:20:19;;;;;;;24.52;3.30;;;10.20;99.90;;;;;;5049380;28;20509;-71
2021/12/28 12:22:50;;;;;;;25.38;3.58;;;10.10;99.90;;;;;;5049716;28;20033;-70
2021/12/28 12:25:22;;;;;;;27.60;3.87;;;10.00;99.90;;;;;;5049435;28;20478;-71
2021/12/28 12:27:57;;;;;;;34.15;4.72;;;9.90;99.90;;;;;;5050011;28;20044;-72
2021/12/28 12:30:28;;;;;;;26.20;3.17;;;9.90;99.90;;;;;;5049130;28;20028;-71
2021/12/28 12:33:07;;;;;;;21.70;2.85;;;9.80;99.90;;;;;;5049415;28;20068;-71
2021/12/28 12:35:54;;;;;;;21.55;2.85;;;9.80;99.90;;;;;;5049509;28;20036;-70
2021/12/28 12:38:26;;;;;;;27.67;3.53;;;9.90;99.90;;;;;;5049392;28;20106;-70
2021/12/28 12:40:59;;;;;;;34.13;5.03;;;9.90;99.90;;;;;;5045450;28;20350;-70
2021/12/28 12:43:39;;;;;;;21.77;3.22;;;9.90;99.90;;;;;;5048497;28;20371;-69
2021/12/28 12:46:06;;;;;;;19.45;2.90;;;10.00;99.90;;;;;;5049205;28;20454;-71
2021/12/28 12:48:51;;;;;;;21.20;3.22;;;10.00;99.90;;;;;;5047530;28;20032;-70
2021/12/28 12:51:29;;;;;;;13.30;2.88;;;10.00;99.90;;;;;;5048732;28;20116;-71
2021/12/28 12:54:02;;;;;;;24.73;3.90;;;10.00;99.90;;;;;;5049010;28;20032;-71
2021/12/28 12:56:32;;;;;;;24.33;3.45;;;10.00;99.90;;;;;;5049102;28;20025;-70
2021/12/28 12:59:03;;;;;;;24.60;2.88;;;10.00;99.90;;;;;;5048987;28;20056;-72
2021/12/28 13:01:33;;;;;;;23.60;3.70;;;10.10;99.90;;;;;;5048666;28;20504;-70
2021/12/28 13:04:00;;;;;;;24.05;3.47;;;10.10;99.90;;;;;;5048674;28;20133;-70
2021/12/28 13:06:41;;;;;;;21.73;2.30;;;10.10;99.90;;;;;;5048265;28;20431;-69
2021/12/28 13:09:09;;;;;;;23.67;3.30;;;10.10;99.90;;;;;;5048778;28;20060;-70
2021/12/28 13:11:36;;;;;;;19.45;3.47;;;10.20;99.90;;;;;;5048308;28;20351;-70
2021/12/28 13:14:03;;;;;;;17.42;2.72;;;10.20;99.90;;;;;;5043785;28;20056;-71
2021/12/28 13:16:29;;;;;;;23.23;3.78;;;10.30;99.90;;;;;;5035177;28;20037;-69
2021/12/28 13:19:12;;;;;;;20.45;4.05;;;10.30;99.90;;;;;;5035016;28;20025;-71
2021/12/28 13:21:39;;;;;;;22.15;3.10;;;10.40;99.90;;;;;;5035026;28;20028;-69
2021/12/28 13:24:12;;;;;;;28.67;4.35;;;10.40;99.90;;;;;;5034737;28;20042;-70
2021/12/28 13:26:56;;;;;;;21.33;4.30;;;10.40;99.90;;;;;;5034801;28;20072;-70
2021/12/28 13:29:27;;;;;;;25.25;3.28;;;10.50;99.90;;;;;;5035140;28;20027;-69
2021/12/28 13:32:09;;;;;;;38.15;4.45;;;10.60;99.90;;;;;;5033644;28;20389;-70
2021/12/28 13:34:59;;;;;;;31.17;4.20;;;10.60;99.90;;;;;;5034748;28;20025;-69
2021/12/28 13:37:29;;;;;;;26.25;4.22;;;10.80;99.90;;;;;;5034961;28;20088;-70
2021/12/28 13:40:04;;;;;;;30.45;4.95;;;10.80;99.90;;;;;;5034934;28;20060;-71
2021/12/28 13:42:30;;;;;;;30.83;4.82;;;10.80;99.90;;;;;;5035068;28;20124;-71
2021/12/28 13:44:56;;;;;;;28.40;5.07;;;10.80;99.90;;;;;;5034707;28;20065;-70
2021/12/28 13:47:21;;;;;;;22.55;3.65;;;10.70;99.90;;;;;;5034855;28;20024;-70
2021/12/28 13:50:03;;;;;;;24.35;4.50;;;10.70;99.90;;;;;;5034234;28;20440;-69
2021/12/28 13:53:01;;;;;;;27.73;4.82;;;10.70;99.90;;;;;;5034770;28;20372;-71
2021/12/28 13:55:33;;;;;;;30.23;3.70;;;10.60;99.90;;;;;;5011471;28;20470;-71
2021/12/28 13:58:00;;;;;;;23.05;3.97;;;10.50;99.90;;;;;;5034702;28;20021;-70
2021/12/28 14:00:29;;;;;;;31.02;4.50;;;10.50;99.90;;;;;;5034380;28;20026;-69
2021/12/28 14:03:06;;;;;;;31.38;4.22;;;10.50;99.90;;;;;;5034330;28;20482;-71
2021/12/28 14:05:34;;;;;;;23.98;3.55;;;10.50;99.90;;;;;;5034469;28;20039;-69
2021/12/28 14:08:02;;;;;;;26.05;4.28;;;10.40;99.90;;;;;;5034477;28;20153;-70
2021/12/28 14:10:30;;;;;;;27.38;3.45;;;10.40;99.90;;;;;;5034727;28;20029;-71
2021/12/28 14:13:26;;;;;;;23.63;3.70;;;10.50;99.90;;;;;;5033479;28;20554;-70
2021/12/28 14:16:07;;;;;;;16.60;3.88;;;10.50;99.90;;;;;;5024915;28;20037;-70
2021/12/28 14:18:32;;;;;;;13.68;2.38;;;10.40;99.90;;;;;;5031716;28;20117;-71
2021/12/28 14:21:10;;;;;;;16.45;2.80;;;10.40;99.90;;;;;;5033731;28;20444;-71
2021/12/28 14:23:36;;;;;;;18.73;3.60;;;10.30;99.90;;;;;;5031841;28;20029;-71
2021/12/28 14:26:08;;;;;;;23.95;4.15;;;10.20;99.90;;;;;;5032467;28;20363;-69
2021/12/28 14:28:35;;;;;;;9.80;2.22;;;10.20;99.90;;;;;;5032096;28;20025;-70
2021/12/28 14:31:17;;;;;;;11.30;1.73;;;10.20;99.90;;;;;;5033727;28;20128;-69
2021/12/28 14:33:45;;;;;;;7.47;1.48;;;10.20;99.90;;;;;;5034018;28;20348;-70
2021/12/28 14:36:10;;;;;;;6.68;0.90;;;10.10;99.90;;;;;;5033978;28;20069;-70
2021/12/28 14:38:36;;;;;;;8.80;1.40;;;10.10;99.90;;;;;;5033891;28;20064;-70
2021/12/28 14:41:02;;;;;;;8.90;1.50;;;10.10;99.90;;;;;;5033296;28;20101;-70
2021/12/28 14:43:30;;;;;;;12.85;1.90;;;10.10;99.90;;;;;;5033120;28;20030;-69
2021/12/28 14:45:56;;;;;;;14.32;2.22;;;10.00;99.90;;;;;;5031555;28;20028;-70
2021/12/28 14:48:21;;;;;;;14.82;2.15;;;9.90;99.90;;;;;;5033422;28;20025;-70
2021/12/28 14:50:47;;;;;;;8.25;1.55;;;9.90;99.90;;;;;;5033121;28;20470;-71
2021/12/28 14:53:19;;;;;;;12.63;1.92;;;9.90;99.90;;;;;;5032751;28;20479;-69
2021/12/28 14:55:45;;;;;;;12.15;1.73;;;9.80;99.90;;;;;;5033009;28;20028;-69
2021/12/28 14:58:15;;;;;;;7.80;1.45;;;9.80;99.90;;;;;;5032890;28;20022;-72
2021/12/28 15:00:48;;;;;;;10.68;1.73;;;9.70;99.90;;;;;;5033474;28;20026;-72
2021/12/28 15:03:23;;;;;;;8.05;1.20;;;9.60;99.90;;;;;;5032883;28;20444;-69
2021/12/28 15:05:57;;;;;;;12.20;1.58;;;9.60;99.90;;;;;;5033205;28;20033;-70
2021/12/28 15:08:32;;;;;;;13.55;2.35;;;9.50;99.90;;;;;;5033712;28;20022;-69
2021/12/28 15:10:58;;;;;;;8.90;2.50;;;9.40;99.90;;;;;;5033148;28;20508;-69
2021/12/28 15:13:28;;;;;;;6.22;1.45;;;9.30;99.90;;;;;;5033105;28;20064;-70
2021/12/28 15:15:55;;;;;;;9.45;1.10;;;9.20;99.90;;;;;;5033491;28;20022;-69
2021/12/28 15:18:21;;;;;;;12.60;1.90;;;9.10;99.90;;;;;;5033497;28;20037;-69
2021/12/28 15:20:48;;;;;;;13.68;1.80;;;9.10;99.90;;;;;;5033406;28;20018;-69
2021/12/28 15:23:13;;;;;;;15.85;2.10;;;9.00;99.90;;;;;;5032396;28;20155;-70
2021/12/28 15:25:39;;;;;;;13.95;2.30;;;8.90;99.90;;;;;;5033193;28;20510;-71
2021/12/28 15:28:05;;;;;;;17.67;2.78;;;8.90;99.90;;;;;;5032659;28;20130;-71
2021/12/28 15:30:38;;;;;;;21.00;2.92;;;8.90;99.90;;;;;;5032685;28;20088;-71
2021/12/28 15:33:04;;;;;;;13.75;2.72;;;8.90;99.90;;;;;;5033192;28;20481;-71
2021/12/28 15:35:42;;;;;;;16.63;2.67;;;9.00;99.90;;;;;;5033053;28;20108;-71
2021/12/28 15:38:11;;;;;;;25.92;2.70;;;9.00;99.90;;;;;;5032965;28;20109;-69
2021/12/28 15:40:42;;;;;;;19.40;3.38;;;9.10;99.90;;;;;;5032441;28;20112;-70
2021/12/28 15:43:10;;;;;;;19.27;4.10;;;9.20;99.90;;;;;;5032471;28;20033;-69
2021/12/28 15:45:37;;;;;;;21.60;3.05;;;9.20;99.90;;;;;;5032983;28;20462;-70
2021/12/28 15:48:03;;;;;;;21.02;2.83;;;9.20;99.90;;;;;;5032926;28;20033;-71
2021/12/28 15:50:29;;;;;;;22.77;3.50;;;9.30;99.90;;;;;;5032716;28;20030;-70
2021/12/28 15:52:54;;;;;;;14.23;2.53;;;9.40;99.90;;;;;;5032162;28;20036;-71
2021/12/28 15:55:20;;;;;;;19.98;3.15;;;9.40;99.90;;;;;;5032331;28;20034;-71
2021/12/28 15:57:46;;;;;;;20.77;2.80;;;9.50;99.90;;;;;;5032660;28;20033;-72
2021/12/28 16:00:13;;;;;;;15.55;2.45;;;9.50;99.90;;;;;;5032282;28;20574;-71
2021/12/28 16:02:40;;;;;;;17.15;2.17;;;9.50;99.90;;;;;;5032510;28;20041;-71
2021/12/28 16:05:06;;;;;;;16.08;2.53;;;9.50;99.90;;;;;;5032236;28;20029;-70
2021/12/28 16:07:32;;;;;;;9.68;2.28;;;9.60;99.90;;;;;;5032541;28;20061;-70
2021/12/28 16:09:58;;;;;;;11.65;2.70;;;9.60;99.90;;;;;;5032122;28;20056;-70
2021/12/28 16:12:24;;;;;;;11.20;2.55;;;9.60;99.90;;;;;;5032156;28;20025;-70
2021/12/28 16:14:50;;;;;;;17.55;2.95;;;9.60;99.90;;;;;;5032364;28;20112;-71
2021/12/28 16:17:16;;;;;;;18.63;2.65;;;9.70;99.90;;;;;;5031001;28;20422;-71
2021/12/28 16:19:42;;;;;;;15.20;3.25;;;9.70;99.90;;;;;;5032265;28;20532;-70
2021/12/28 16:22:11;;;;;;;15.48;3.50;;;9.70;99.90;;;;;;5032049;28;20034;-70
2021/12/28 16:24:37;;;;;;;18.63;3.85;;;9.70;99.90;;;;;;5032584;28;20517;-72
2021/12/28 16:27:03;;;;;;;18.38;3.55;;;9.70;99.90;;;;;;5032209;28;20156;-71
2021/12/28 16:29:29;;;;;;;26.98;3.60;;;9.70;99.90;;;;;;5032046;28;20108;-69
2021/12/28 16:31:55;;;;;;;19.60;3.38;;;9.80;99.90;;;;;;5032107;28;20038;-71
2021/12/28 16:34:21;;;;;;;17.10;2.90;;;9.80;99.90;;;;;;5031870;28;20033;-70
2021/12/28 16:36:46;;;;;;;20.05;3.47;;;9.80;99.90;;;;;;5031012;28;20069;-70
2021/12/28 16:39:16;;;;;;;21.58;3.70;;;9.90;99.90;;;;;;5032434;28;20029;-72
2021/12/28 16:41:41;;;;;;;24.48;3.17;;;9.90;99.90;;;;;;5032269;28;20041;-71
2021/12/28 16:44:07;;;;;;;16.83;3.10;;;9.90;99.90;;;;;;5032023;28;20033;-71
2021/12/28 16:46:34;;;;;;;18.67;3.70;;;9.90;99.90;;;;;;5031308;28;20076;-70